Time;durP1;ratioP1;P1;durP2;ratioP2;P2;SDS_P1;SDS_P2;PMS_P1;PMS_P2;Temp;Humidity;BMP_temperature;BMP_pressure;BME280_temperature;BME280_humidity;BME280_pressure;Samples;Min_cycle;Max_cycle;Signal;HPM_P1;HPM_P2
2022/09/19 00:00:15;;;;;;;4.30;2.57;;;25.50;66.50;;;;;;5115360;28;20465;-73
2022/09/19 00:02:45;;;;;;;3.63;3.03;;;25.40;66.70;;;;;;5119569;28;20530;-73
2022/09/19 00:05:16;;;;;;;5.17;4.20;;;25.30;67.20;;;;;;5106412;28;20531;-71
2022/09/19 00:07:49;;;;;;;3.83;2.93;;;25.20;66.30;;;;;;5103109;28;20471;-75
2022/09/19 00:10:20;;;;;;;3.67;2.80;;;25.10;67.30;;;;;;5099537;28;20457;-72
2022/09/19 00:12:52;;;;;;;3.70;3.20;;;25.20;67.50;;;;;;5088115;28;20791;-73
2022/09/19 00:15:24;;;;;;;4.27;3.07;;;25.10;67.60;;;;;;5112239;28;20505;-74
2022/09/19 00:17:55;;;;;;;3.63;3.33;;;25.20;68.50;;;;;;5112406;28;21471;-70
2022/09/19 00:20:26;;;;;;;3.87;3.43;;;25.10;67.20;;;;;;5105016;28;20481;-70
2022/09/19 00:25:44;;;;;;;5.03;3.27;;;25.00;68.60;;;;;;5104988;28;20486;-74
2022/09/19 00:28:15;;;;;;;4.20;3.30;;;24.90;69.00;;;;;;5100777;28;20448;-72
2022/09/19 00:30:48;;;;;;;4.23;3.50;;;24.90;69.00;;;;;;5109476;28;20464;-74
2022/09/19 00:33:20;;;;;;;3.50;3.07;;;24.80;68.70;;;;;;5111781;28;20452;-74
2022/09/19 00:35:54;;;;;;;4.17;3.30;;;24.70;67.80;;;;;;5100838;28;20465;-71
2022/09/19 00:38:26;;;;;;;5.30;3.90;;;24.60;68.30;;;;;;5110895;28;20463;-72
2022/09/19 00:40:57;;;;;;;4.60;3.87;;;24.50;68.90;;;;;;5104562;28;20457;-70
2022/09/19 00:43:50;;;;;;;4.40;3.50;;;24.40;70.20;;;;;;5103388;28;20491;-77
2022/09/19 00:46:24;;;;;;;5.27;3.73;;;24.30;68.00;;;;;;5105810;28;20473;-77
2022/09/19 00:49:00;;;;;;;3.93;3.53;;;24.30;69.50;;;;;;5103019;28;20466;-72
2022/09/19 00:51:39;;;;;;;12.50;8.07;;;24.20;70.10;;;;;;5103477;28;20467;-76
2022/09/19 00:54:13;;;;;;;6.73;6.03;;;24.20;70.50;;;;;;5121583;28;20475;-75
2022/09/19 00:56:47;;;;;;;5.60;4.43;;;24.10;71.10;;;;;;5104317;28;20453;-73
2022/09/19 00:59:19;;;;;;;5.27;4.77;;;24.10;71.00;;;;;;5103294;28;20450;-73
2022/09/19 01:01:54;;;;;;;9.30;8.40;;;24.00;70.60;;;;;;5103778;28;20599;-73
2022/09/19 01:04:31;;;;;;;15.20;13.60;;;24.00;72.70;;;;;;5113694;28;20511;-73
2022/09/19 01:07:13;;;;;;;24.80;21.00;;;24.00;72.50;;;;;;5123443;28;20481;-73
2022/09/19 01:09:52;;;;;;;45.27;41.10;;;23.90;71.90;;;;;;5109271;28;20467;-73
2022/09/19 01:12:34;;;;;;;7.57;6.77;;;23.80;72.80;;;;;;5113078;28;20475;-70
2022/09/19 01:15:22;;;;;;;16.73;13.17;;;23.70;74.20;;;;;;5103947;28;21168;-75
2022/09/19 01:17:57;;;;;;;6.00;5.40;;;23.70;71.40;;;;;;5102960;28;20467;-74
2022/09/19 01:20:56;;;;;;;5.27;3.93;;;23.60;76.80;;;;;;5107703;28;20505;-68
2022/09/19 01:23:52;;;;;;;5.23;4.17;;;23.50;77.30;;;;;;5107382;27;20560;-67
2022/09/19 01:26:39;;;;;;;5.00;4.50;;;23.40;76.40;;;;;;5101764;28;20473;-68
2022/09/19 01:29:16;;;;;;;3.70;3.23;;;23.40;77.40;;;;;;5091522;28;20527;-72
2022/09/19 01:31:50;;;;;;;3.30;3.00;;;23.30;78.80;;;;;;5106602;28;20470;-68
2022/09/19 01:34:27;;;;;;;5.70;4.00;;;23.20;75.00;;;;;;5120775;28;20488;-69
2022/09/19 01:37:05;;;;;;;5.93;3.20;;;23.20;79.60;;;;;;5103767;28;20509;-74
2022/09/19 01:39:39;;;;;;;3.90;3.20;;;23.00;80.20;;;;;;5109659;28;20462;-75
2022/09/19 01:42:14;;;;;;;5.17;3.70;;;22.80;82.30;;;;;;5118901;28;20509;-73
2022/09/19 01:44:46;;;;;;;4.03;3.10;;;22.70;79.00;;;;;;5104816;28;20557;-71
2022/09/19 01:47:26;;;;;;;3.57;3.27;;;22.60;81.90;;;;;;5104523;28;20466;-70
2022/09/19 01:50:05;;;;;;;4.87;3.53;;;22.40;85.90;;;;;;5103132;28;20454;-76
2022/09/19 01:52:55;;;;;;;3.70;3.03;;;22.30;88.00;;;;;;5101684;28;20466;-74
2022/09/19 01:55:31;;;;;;;4.40;3.03;;;22.10;86.90;;;;;;5103406;28;20462;-71
2022/09/19 01:58:06;;;;;;;4.87;3.57;;;21.90;90.30;;;;;;5102587;28;20474;-73
2022/09/19 02:00:45;;;;;;;4.30;3.90;;;21.80;90.80;;;;;;5102444;28;20806;-74
2022/09/19 02:03:27;;;;;;;4.33;3.93;;;21.60;90.30;;;;;;5108931;28;20483;-73
2022/09/19 02:06:02;;;;;;;4.93;3.43;;;21.50;91.20;;;;;;5105782;28;20466;-79
2022/09/19 02:08:36;;;;;;;3.37;3.07;;;21.30;91.50;;;;;;5091830;28;20458;-73
2022/09/19 02:11:11;;;;;;;3.37;3.07;;;21.20;91.70;;;;;;5112217;28;20521;-75
2022/09/19 02:13:51;;;;;;;3.40;3.10;;;21.10;91.80;;;;;;5095771;28;20816;-76
2022/09/19 02:16:30;;;;;;;4.33;3.30;;;21.00;92.60;;;;;;5121167;28;20445;-69
2022/09/19 02:19:06;;;;;;;4.07;3.57;;;20.80;92.70;;;;;;5100624;28;20509;-71
2022/09/19 02:21:44;;;;;;;3.90;3.40;;;20.70;94.10;;;;;;5102019;28;20462;-70
2022/09/19 02:24:19;;;;;;;4.60;3.60;;;20.60;94.90;;;;;;5110748;28;20512;-68
2022/09/19 02:26:53;;;;;;;4.97;3.43;;;20.50;95.20;;;;;;5092829;28;21515;-70
2022/09/19 02:29:32;;;;;;;4.40;4.00;;;20.40;94.80;;;;;;5102988;28;20421;-69
2022/09/19 02:32:08;;;;;;;5.17;3.93;;;20.20;95.90;;;;;;5101114;28;20433;-69
2022/09/19 02:34:40;;;;;;;3.37;2.87;;;20.20;96.70;;;;;;5104951;28;20425;-69
2022/09/19 02:37:21;;;;;;;5.43;4.17;;;20.10;97.80;;;;;;5109995;28;20433;-70
2022/09/19 02:40:01;;;;;;;9.80;6.67;;;20.00;98.70;;;;;;5110619;28;20509;-70
2022/09/19 02:42:41;;;;;;;8.10;6.80;;;19.80;98.60;;;;;;5105105;28;20450;-69
2022/09/19 02:45:18;;;;;;;9.10;7.63;;;19.80;99.90;;;;;;5103130;28;20470;-69
2022/09/19 02:47:54;;;;;;;9.20;7.77;;;19.70;98.70;;;;;;5099508;28;20450;-70
2022/09/19 02:50:31;;;;;;;9.03;7.27;;;19.70;99.60;;;;;;5102606;28;20487;-71
2022/09/19 02:53:06;;;;;;;9.30;7.47;;;19.70;99.50;;;;;;5086013;28;22067;-68
2022/09/19 02:55:44;;;;;;;9.47;7.40;;;19.70;99.90;;;;;;5102370;28;20461;-70
2022/09/19 02:58:17;;;;;;;8.47;6.77;;;19.70;99.90;;;;;;5101202;28;20471;-70
2022/09/19 03:00:52;;;;;;;9.60;7.07;;;19.60;99.90;;;;;;5101575;28;20413;-71
2022/09/19 03:06:21;;;;;;;7.10;4.80;;;19.60;99.90;;;;;;5096716;28;20440;-72
2022/09/19 03:08:56;;;;;;;4.77;3.80;;;19.60;99.90;;;;;;5105842;28;20587;-71
2022/09/19 03:11:29;;;;;;;5.97;4.87;;;19.60;99.90;;;;;;5104607;28;20469;-69
2022/09/19 03:14:01;;;;;;;5.27;3.90;;;19.60;99.90;;;;;;5101800;28;20522;-67
2022/09/19 03:16:35;;;;;;;4.60;3.90;;;19.70;99.90;;;;;;5097798;28;20490;-72
2022/09/19 03:19:10;;;;;;;4.57;4.17;;;19.60;99.90;;;;;;5101736;28;20810;-75
2022/09/19 03:21:43;;;;;;;4.63;4.00;;;19.50;99.90;;;;;;5100824;28;20555;-72
2022/09/19 03:24:13;;;;;;;5.13;4.63;;;19.40;99.90;;;;;;5102559;28;20490;-71
2022/09/19 03:26:44;;;;;;;5.10;4.33;;;19.50;99.90;;;;;;5102082;28;20451;-70
2022/09/19 03:29:15;;;;;;;6.93;4.80;;;19.50;99.90;;;;;;5117501;28;20424;-71
2022/09/19 03:31:46;;;;;;;4.90;4.20;;;19.50;99.90;;;;;;5110077;28;20457;-68
2022/09/19 03:34:18;;;;;;;5.77;4.50;;;19.40;99.90;;;;;;5121758;28;20426;-71
2022/09/19 03:36:49;;;;;;;6.13;4.87;;;19.40;99.90;;;;;;5112713;28;20537;-74
2022/09/19 03:39:21;;;;;;;4.60;4.20;;;19.40;99.90;;;;;;5102439;28;20829;-70
2022/09/19 03:41:52;;;;;;;5.67;5.10;;;19.40;99.90;;;;;;5103609;28;20434;-69
2022/09/19 03:44:23;;;;;;;5.50;4.73;;;19.40;99.90;;;;;;5105695;28;20455;-71
2022/09/19 03:46:54;;;;;;;4.73;4.30;;;19.30;99.90;;;;;;5099150;28;20462;-69
2022/09/19 03:49:27;;;;;;;4.23;3.80;;;19.30;99.90;;;;;;5098696;28;20441;-70
2022/09/19 03:52:01;;;;;;;5.47;4.50;;;19.20;99.90;;;;;;5100725;28;20542;-69
2022/09/19 03:54:32;;;;;;;6.23;4.93;;;19.10;99.90;;;;;;5111536;28;20492;-70
2022/09/19 03:57:03;;;;;;;5.70;5.20;;;19.10;99.90;;;;;;5108102;28;20542;-71
2022/09/19 03:59:34;;;;;;;5.20;4.60;;;19.00;99.90;;;;;;5105479;28;20499;-69
2022/09/19 04:02:04;;;;;;;5.77;3.40;;;19.00;99.90;;;;;;5100564;28;20459;-68
2022/09/19 04:04:37;;;;;;;4.60;3.97;;;18.90;99.90;;;;;;5104361;28;20521;-70
2022/09/19 04:07:08;;;;;;;3.40;3.10;;;18.80;99.90;;;;;;5101291;28;20465;-71
2022/09/19 04:09:39;;;;;;;4.30;3.50;;;18.80;99.90;;;;;;5108722;28;20525;-70
2022/09/19 04:12:11;;;;;;;4.70;3.77;;;18.80;99.90;;;;;;5110603;28;20537;-68
2022/09/19 04:14:42;;;;;;;4.87;4.00;;;18.70;99.90;;;;;;5107373;28;20441;-67
2022/09/19 04:17:13;;;;;;;4.57;4.07;;;18.60;99.90;;;;;;5100916;28;20946;-68
2022/09/19 04:19:54;;;;;;;4.47;3.90;;;18.50;99.90;;;;;;5105214;28;20466;-69
2022/09/19 04:22:24;;;;;;;4.90;4.10;;;18.50;99.90;;;;;;5109058;28;20488;-68
2022/09/19 04:24:55;;;;;;;5.07;4.30;;;18.50;99.90;;;;;;5105989;28;20494;-67
2022/09/19 04:27:26;;;;;;;3.93;3.50;;;18.40;99.90;;;;;;5100943;28;20482;-70
2022/09/19 04:29:57;;;;;;;3.70;3.13;;;18.40;99.90;;;;;;5105074;28;20450;-69
2022/09/19 04:32:28;;;;;;;4.07;3.43;;;18.30;99.90;;;;;;5114390;28;20440;-69
2022/09/19 04:35:00;;;;;;;3.87;3.40;;;18.30;99.90;;;;;;5110707;28;20445;-68
2022/09/19 04:37:31;;;;;;;4.43;3.70;;;18.20;99.90;;;;;;5107297;28;20441;-66
2022/09/19 04:40:02;;;;;;;5.20;3.87;;;18.10;99.90;;;;;;5105049;28;20475;-69
2022/09/19 04:42:35;;;;;;;4.97;4.10;;;17.90;99.90;;;;;;5104345;28;20884;-68
2022/09/19 04:45:08;;;;;;;3.93;3.40;;;17.90;99.90;;;;;;5110699;28;20478;-67
2022/09/19 04:47:39;;;;;;;4.20;3.77;;;17.80;99.90;;;;;;5110018;28;20535;-71
2022/09/19 04:50:12;;;;;;;3.60;3.30;;;17.80;99.90;;;;;;5105516;28;20459;-68
2022/09/19 04:52:43;;;;;;;4.33;3.70;;;17.80;99.90;;;;;;5119835;28;20424;-67
2022/09/19 04:55:14;;;;;;;4.90;4.03;;;17.80;99.90;;;;;;5108472;28;20502;-71
2022/09/19 04:57:46;;;;;;;5.90;3.60;;;17.70;99.90;;;;;;5105701;28;20458;-70
2022/09/19 05:00:36;;;;;;;5.13;4.03;;;17.60;99.90;;;;;;5112540;28;20480;-70
2022/09/19 05:03:09;;;;;;;4.17;3.50;;;17.60;99.90;;;;;;5108283;28;20484;-69
2022/09/19 05:05:44;;;;;;;5.40;4.90;;;17.60;99.90;;;;;;5104032;28;20516;-70
2022/09/19 05:08:17;;;;;;;6.07;4.50;;;17.50;99.90;;;;;;5103470;28;20436;-70
2022/09/19 05:10:49;;;;;;;6.77;4.90;;;17.50;99.90;;;;;;5103572;28;20535;-68
2022/09/19 05:13:19;;;;;;;5.60;4.37;;;17.50;99.90;;;;;;5104246;28;20434;-69
2022/09/19 05:15:51;;;;;;;4.23;3.80;;;17.40;99.90;;;;;;5105642;28;21102;-68
2022/09/19 05:18:22;;;;;;;5.23;3.90;;;17.50;99.90;;;;;;5107302;28;20443;-67
2022/09/19 05:20:56;;;;;;;6.00;5.40;;;17.50;99.90;;;;;;5104538;28;20482;-68
2022/09/19 05:23:27;;;;;;;5.57;4.50;;;17.50;99.90;;;;;;5103992;28;20528;-67
2022/09/19 05:26:03;;;;;;;5.00;3.73;;;17.40;99.90;;;;;;5101564;28;20498;-65
2022/09/19 05:28:33;;;;;;;6.00;4.50;;;17.40;99.90;;;;;;5111230;28;20440;-65
2022/09/19 05:31:06;;;;;;;5.57;4.33;;;17.40;99.90;;;;;;5108932;28;20485;-65
2022/09/19 05:33:37;;;;;;;4.80;4.13;;;17.40;99.90;;;;;;5108230;28;20515;-66
2022/09/19 05:36:10;;;;;;;6.83;4.17;;;17.50;99.90;;;;;;5107251;28;20529;-66
2022/09/19 05:38:41;;;;;;;6.77;4.20;;;17.50;99.90;;;;;;5102871;28;20458;-65
2022/09/19 05:41:13;;;;;;;6.27;4.60;;;17.50;99.90;;;;;;5107960;28;20899;-66
2022/09/19 05:43:44;;;;;;;6.17;3.47;;;17.50;99.90;;;;;;5104611;28;20514;-66
2022/09/19 05:46:15;;;;;;;6.37;4.20;;;17.40;99.90;;;;;;5104364;28;20482;-66
2022/09/19 05:48:48;;;;;;;4.00;3.50;;;17.30;99.90;;;;;;5111402;28;20906;-66
2022/09/19 05:51:20;;;;;;;5.70;3.77;;;17.40;99.90;;;;;;5114303;28;20469;-66
2022/09/19 05:53:52;;;;;;;4.37;3.57;;;17.40;99.90;;;;;;5109262;28;20499;-66
2022/09/19 05:56:24;;;;;;;4.40;4.00;;;17.40;99.90;;;;;;5098058;28;20476;-66
2022/09/19 05:58:56;;;;;;;4.50;4.10;;;17.50;99.90;;;;;;5105201;28;20462;-67
2022/09/19 06:01:27;;;;;;;4.67;4.20;;;17.40;99.90;;;;;;5104194;28;20584;-67
2022/09/19 06:03:59;;;;;;;5.67;3.83;;;17.40;99.90;;;;;;5113555;28;20477;-67
2022/09/19 06:06:32;;;;;;;3.53;3.23;;;17.50;99.90;;;;;;5123882;28;20455;-67
2022/09/19 06:09:03;;;;;;;3.70;3.00;;;17.40;99.90;;;;;;5105895;28;20447;-66
2022/09/19 06:11:34;;;;;;;4.30;3.90;;;17.50;99.90;;;;;;5103513;28;20455;-66
2022/09/19 06:14:17;;;;;;;4.20;3.80;;;17.60;99.90;;;;;;5111028;28;20502;-66
2022/09/19 06:16:49;;;;;;;4.63;3.67;;;17.60;99.90;;;;;;5118334;28;20466;-67
2022/09/19 06:19:20;;;;;;;5.70;3.53;;;17.60;99.90;;;;;;5117481;28;20587;-67
2022/09/19 06:21:53;;;;;;;5.80;3.10;;;17.60;99.90;;;;;;5102707;28;20518;-67
2022/09/19 06:24:25;;;;;;;3.90;3.57;;;17.60;99.90;;;;;;5110769;28;20466;-67
2022/09/19 06:26:57;;;;;;;4.50;4.10;;;17.50;99.90;;;;;;5101729;28;20462;-66
2022/09/19 06:29:27;;;;;;;4.20;3.70;;;17.50;99.90;;;;;;5094724;28;20461;-67
2022/09/19 06:31:58;;;;;;;5.63;3.80;;;17.50;99.90;;;;;;5106168;28;20523;-67
2022/09/19 06:34:29;;;;;;;5.13;3.50;;;17.50;99.90;;;;;;5111362;28;20509;-67
2022/09/19 06:37:21;;;;;;;3.70;3.13;;;17.50;99.90;;;;;;5104569;28;20486;-67
2022/09/19 06:39:52;;;;;;;3.90;3.53;;;17.50;99.90;;;;;;5101180;28;20441;-66
2022/09/19 06:42:23;;;;;;;4.43;3.67;;;17.50;99.90;;;;;;5102992;28;20528;-66
2022/09/19 06:44:58;;;;;;;3.50;3.17;;;17.40;99.90;;;;;;5097822;28;20458;-67
2022/09/19 06:47:30;;;;;;;4.20;3.80;;;17.50;99.90;;;;;;5101655;28;20489;-67
2022/09/19 06:50:01;;;;;;;3.43;3.10;;;17.40;99.90;;;;;;5102206;28;20455;-66
2022/09/19 06:52:34;;;;;;;5.27;3.63;;;17.40;99.90;;;;;;5102609;28;20441;-67
2022/09/19 06:55:04;;;;;;;3.90;3.30;;;17.40;99.90;;;;;;5109192;28;20436;-67
2022/09/19 06:57:35;;;;;;;5.00;3.87;;;17.40;99.90;;;;;;5119757;28;20496;-67
2022/09/19 07:00:08;;;;;;;3.73;3.33;;;17.30;99.90;;;;;;5099717;28;20508;-67
2022/09/19 07:02:39;;;;;;;5.13;3.73;;;17.20;99.90;;;;;;5105264;28;20481;-66
2022/09/19 07:05:10;;;;;;;4.27;3.33;;;17.10;99.90;;;;;;5103030;28;20464;-66
2022/09/19 07:07:42;;;;;;;4.50;4.03;;;17.00;99.90;;;;;;5106039;28;21728;-66
2022/09/19 07:10:13;;;;;;;3.83;3.50;;;17.00;99.90;;;;;;5102785;28;20846;-66
2022/09/19 07:12:44;;;;;;;4.40;3.63;;;17.00;99.90;;;;;;5102427;28;20440;-66
2022/09/19 07:15:15;;;;;;;3.73;2.83;;;17.00;99.90;;;;;;5101818;28;20576;-66
2022/09/19 07:17:46;;;;;;;4.60;3.70;;;17.00;99.90;;;;;;5107769;28;20465;-66
2022/09/19 07:20:17;;;;;;;4.30;3.23;;;16.80;99.90;;;;;;5101543;28;20506;-65
2022/09/19 07:22:49;;;;;;;4.77;3.30;;;16.90;99.90;;;;;;5102044;28;20742;-65
2022/09/19 07:25:20;;;;;;;3.20;2.90;;;16.80;99.90;;;;;;5101862;28;20466;-66
2022/09/19 07:27:57;;;;;;;3.40;3.10;;;16.80;99.90;;;;;;5102248;28;22483;-66
2022/09/19 07:30:34;;;;;;;5.90;3.23;;;16.70;99.90;;;;;;5101804;28;20756;-66
2022/09/19 07:33:07;;;;;;;3.70;3.20;;;16.60;99.90;;;;;;5113113;28;20920;-66
2022/09/19 07:35:41;;;;;;;4.87;3.50;;;16.50;99.90;;;;;;5103039;28;20441;-66
2022/09/19 07:38:15;;;;;;;4.33;3.60;;;16.40;99.90;;;;;;5104964;28;20445;-65
2022/09/19 07:40:46;;;;;;;3.83;3.37;;;16.40;99.90;;;;;;5102830;28;20478;-66
2022/09/19 07:43:18;;;;;;;5.20;3.20;;;16.40;99.90;;;;;;5101525;28;20517;-66
2022/09/19 07:45:50;;;;;;;4.07;3.60;;;16.30;99.90;;;;;;5108670;28;20457;-66
2022/09/19 07:48:23;;;;;;;4.27;3.40;;;16.30;99.90;;;;;;5106111;28;20462;-66
2022/09/19 07:50:54;;;;;;;6.23;3.70;;;16.30;99.90;;;;;;5101715;28;20429;-66
2022/09/19 07:53:30;;;;;;;3.50;3.20;;;16.20;99.90;;;;;;5101371;28;20494;-65
2022/09/19 07:56:01;;;;;;;5.07;2.97;;;16.20;99.90;;;;;;5104330;28;20518;-66
2022/09/19 07:58:32;;;;;;;2.93;2.70;;;16.00;99.90;;;;;;5104828;28;20527;-66
2022/09/19 08:01:03;;;;;;;3.90;3.00;;;16.00;99.90;;;;;;5108188;28;20455;-66
2022/09/19 08:03:34;;;;;;;5.73;3.67;;;16.00;99.90;;;;;;5106009;28;20479;-66
2022/09/19 08:06:06;;;;;;;3.87;3.27;;;15.90;99.90;;;;;;5107177;28;20542;-66
2022/09/19 08:08:38;;;;;;;4.20;3.10;;;15.90;99.90;;;;;;5104482;28;20440;-66
2022/09/19 08:11:09;;;;;;;5.20;3.90;;;15.90;99.90;;;;;;5110739;28;20459;-66
2022/09/19 08:13:40;;;;;;;6.23;3.40;;;15.90;99.90;;;;;;5104578;28;20454;-66
2022/09/19 08:16:11;;;;;;;3.57;3.27;;;15.90;99.90;;;;;;5118591;28;20531;-66
2022/09/19 08:18:42;;;;;;;4.80;3.17;;;15.90;99.90;;;;;;5108507;28;20481;-65
2022/09/19 08:21:14;;;;;;;3.90;3.50;;;15.90;99.90;;;;;;5115377;28;20502;-66
2022/09/19 08:23:46;;;;;;;3.50;3.20;;;15.90;99.90;;;;;;5104831;28;20473;-66
2022/09/19 08:26:18;;;;;;;5.23;3.70;;;15.90;99.90;;;;;;5095586;28;20519;-66
2022/09/19 08:28:51;;;;;;;4.60;3.37;;;15.80;99.90;;;;;;5112375;28;20505;-66
2022/09/19 08:31:22;;;;;;;3.63;3.07;;;15.90;99.90;;;;;;5105618;28;20814;-66
2022/09/19 08:33:53;;;;;;;4.27;3.30;;;15.80;99.90;;;;;;5118643;28;20424;-66
2022/09/19 08:36:24;;;;;;;3.50;3.20;;;15.70;99.90;;;;;;5116688;28;20446;-66
2022/09/19 08:38:56;;;;;;;4.17;3.00;;;15.70;99.90;;;;;;5106197;28;20454;-66
2022/09/19 08:41:57;;;;;;;4.17;3.60;;;15.60;99.90;;;;;;5105712;28;20474;-66
2022/09/19 08:44:41;;;;;;;3.40;3.10;;;15.60;99.90;;;;;;5108470;28;20545;-66
2022/09/19 08:47:15;;;;;;;5.70;3.23;;;15.60;99.90;;;;;;5101663;28;20520;-66
2022/09/19 08:49:51;;;;;;;3.33;3.03;;;15.60;99.90;;;;;;5106894;28;20453;-66
2022/09/19 08:52:33;;;;;;;4.60;3.30;;;15.50;99.90;;;;;;5108638;28;20462;-66
2022/09/19 08:55:11;;;;;;;3.53;3.10;;;15.50;99.90;;;;;;5104353;28;20455;-66
2022/09/19 08:57:50;;;;;;;4.37;3.47;;;15.40;99.90;;;;;;5103821;28;20488;-66
2022/09/19 09:00:23;;;;;;;4.10;3.23;;;15.40;99.90;;;;;;5104083;28;20463;-67
2022/09/19 09:02:59;;;;;;;4.57;3.33;;;15.30;99.90;;;;;;5106735;28;20486;-66
2022/09/19 09:05:48;;;;;;;4.07;3.70;;;15.20;99.90;;;;;;5104304;28;20458;-66
2022/09/19 09:08:35;;;;;;;4.07;3.17;;;15.20;99.90;;;;;;5107785;28;20463;-66
2022/09/19 09:11:18;;;;;;;5.10;3.53;;;15.20;99.90;;;;;;5121187;28;20462;-67
2022/09/19 09:13:59;;;;;;;3.40;2.93;;;15.20;99.90;;;;;;5104417;28;20449;-67
2022/09/19 09:16:42;;;;;;;4.93;3.40;;;15.20;99.90;;;;;;5103901;28;20607;-66
2022/09/19 09:19:30;;;;;;;4.47;3.57;;;15.20;99.90;;;;;;5102956;28;20550;-66
2022/09/19 09:22:10;;;;;;;4.50;3.70;;;15.20;99.90;;;;;;5104180;28;20535;-66
2022/09/19 09:24:43;;;;;;;4.30;3.30;;;15.20;99.90;;;;;;5103535;28;20539;-66
2022/09/19 09:27:22;;;;;;;4.30;3.30;;;15.20;99.90;;;;;;5105878;28;20554;-66
2022/09/19 09:29:58;;;;;;;3.47;3.13;;;15.10;99.90;;;;;;5113651;28;20462;-66
2022/09/19 09:32:32;;;;;;;3.80;3.07;;;15.00;99.90;;;;;;5102942;28;20470;-66
2022/09/19 09:35:08;;;;;;;6.97;3.07;;;15.00;99.90;;;;;;5101309;28;20450;-66
2022/09/19 09:37:42;;;;;;;3.87;3.17;;;15.00;99.90;;;;;;5103621;28;20465;-65
2022/09/19 09:41:44;;;;;;;2.93;2.50;;;15.00;99.90;;;;;;5104744;28;20545;-65
2022/09/19 09:43:20;;;;;;;5.67;3.67;;;14.90;99.90;;;;;;5104701;28;20545;-65
2022/09/19 09:45:52;;;;;;;5.10;3.60;;;14.90;99.90;;;;;;5110379;28;20473;-65
2022/09/19 09:48:26;;;;;;;4.80;3.33;;;14.90;99.90;;;;;;5104244;28;20496;-66
2022/09/19 09:51:10;;;;;;;3.73;3.00;;;14.80;99.90;;;;;;5103537;28;20836;-66
2022/09/19 09:53:57;;;;;;;3.90;3.50;;;14.80;99.90;;;;;;5103180;28;21014;-65
2022/09/19 09:56:32;;;;;;;3.87;2.90;;;14.70;99.90;;;;;;5113581;28;20461;-66
2022/09/19 10:05:20;;;;;;;3.83;3.43;;;14.60;99.90;;;;;;5099325;28;20429;-66
2022/09/19 10:07:58;;;;;;;5.00;3.70;;;14.50;99.90;;;;;;5112214;28;20609;-66
2022/09/19 10:10:32;;;;;;;5.70;3.70;;;14.50;99.90;;;;;;5109310;28;20466;-65
2022/09/19 10:13:09;;;;;;;3.90;3.03;;;14.50;99.90;;;;;;5103033;28;20485;-66
2022/09/19 10:15:42;;;;;;;3.63;3.33;;;14.50;99.90;;;;;;5102726;28;20441;-66
2022/09/19 10:18:18;;;;;;;4.20;3.00;;;14.50;99.90;;;;;;5110750;28;20462;-66
2022/09/19 10:20:51;;;;;;;4.80;3.70;;;14.50;99.90;;;;;;5093872;28;20819;-66
2022/09/19 10:23:25;;;;;;;6.00;4.00;;;14.40;99.90;;;;;;5103361;28;20551;-66
2022/09/19 10:26:02;;;;;;;5.27;3.77;;;14.30;99.90;;;;;;5096149;28;20454;-66
2022/09/19 10:28:37;;;;;;;3.90;3.37;;;14.30;99.90;;;;;;5101655;28;20489;-65
2022/09/19 10:31:24;;;;;;;3.70;3.37;;;14.20;99.90;;;;;;5103238;28;20479;-65
2022/09/19 10:33:54;;;;;;;3.30;2.70;;;14.20;99.90;;;;;;5104244;28;20489;-65
2022/09/19 10:36:33;;;;;;;4.70;3.60;;;14.20;99.90;;;;;;5107089;28;20466;-65
2022/09/19 10:39:12;;;;;;;7.20;3.90;;;14.30;99.90;;;;;;5103797;28;20507;-66
2022/09/19 10:41:43;;;;;;;5.83;3.53;;;14.20;99.90;;;;;;5106705;28;20513;-66
2022/09/19 10:44:22;;;;;;;4.03;3.43;;;14.10;99.90;;;;;;5100974;28;20450;-66
2022/09/19 10:46:58;;;;;;;3.70;3.10;;;14.10;99.90;;;;;;5107355;28;20454;-66
2022/09/19 10:49:31;;;;;;;3.53;3.23;;;14.10;99.90;;;;;;5102351;28;20446;-65
2022/09/19 10:52:02;;;;;;;4.03;2.83;;;14.00;99.90;;;;;;5105973;28;20884;-66
2022/09/19 10:54:36;;;;;;;4.20;3.70;;;13.90;99.90;;;;;;5114839;28;20458;-66
2022/09/19 10:57:27;;;;;;;4.23;3.20;;;13.80;99.90;;;;;;5110183;28;20453;-66
2022/09/19 11:00:03;;;;;;;5.77;4.10;;;13.80;99.90;;;;;;5101553;28;20458;-65
2022/09/19 11:02:36;;;;;;;3.63;3.20;;;13.90;99.90;;;;;;5100823;28;20417;-66
2022/09/19 11:05:09;;;;;;;3.90;3.40;;;14.00;99.90;;;;;;5101646;28;20494;-66
2022/09/19 11:07:50;;;;;;;3.33;2.90;;;13.90;99.90;;;;;;5105985;28;20551;-66
2022/09/19 11:10:37;;;;;;;4.53;4.10;;;13.90;99.90;;;;;;5101424;28;20462;-66
2022/09/19 11:13:16;;;;;;;3.23;2.93;;;13.80;99.90;;;;;;5110235;28;20462;-66
2022/09/19 11:16:18;;;;;;;6.23;3.50;;;13.90;99.90;;;;;;5102420;28;20480;-66
2022/09/19 11:19:06;;;;;;;4.23;3.43;;;13.80;99.90;;;;;;5102017;28;20474;-66
2022/09/19 11:21:50;;;;;;;3.73;3.20;;;13.70;99.90;;;;;;5102576;28;20499;-65
2022/09/19 11:24:46;;;;;;;3.87;3.40;;;13.70;99.90;;;;;;5101581;28;20462;-66
2022/09/19 11:27:29;;;;;;;3.43;3.07;;;13.70;99.90;;;;;;5103124;28;20514;-65
2022/09/19 11:30:11;;;;;;;3.47;2.90;;;13.70;99.90;;;;;;5117239;28;20457;-66
2022/09/19 11:33:21;;;;;;;4.60;3.20;;;13.70;99.90;;;;;;5102282;28;20782;-66
2022/09/19 11:36:23;;;;;;;5.30;2.93;;;13.80;99.90;;;;;;5085971;28;20513;-66
2022/09/19 11:39:03;;;;;;;3.60;3.30;;;13.70;99.90;;;;;;5107887;28;20445;-65
2022/09/19 11:42:14;;;;;;;4.53;3.70;;;13.70;99.90;;;;;;5104877;28;20474;-66
2022/09/19 11:45:00;;;;;;;3.20;2.90;;;13.70;99.90;;;;;;5090070;28;20477;-65
2022/09/19 11:47:50;;;;;;;5.10;4.00;;;13.70;99.90;;;;;;5115889;28;20470;-65
2022/09/19 11:50:32;;;;;;;3.83;3.10;;;13.60;99.90;;;;;;5109021;28;20478;-65
2022/09/19 11:53:23;;;;;;;4.20;3.10;;;13.60;99.90;;;;;;5103620;28;20480;-65
2022/09/19 11:55:58;;;;;;;6.10;4.27;;;13.50;99.90;;;;;;5106434;28;20476;-65
2022/09/19 11:58:35;;;;;;;5.67;3.83;;;13.40;99.90;;;;;;5123933;28;20445;-66
2022/09/19 12:01:18;;;;;;;4.10;3.63;;;13.40;99.90;;;;;;5121143;27;20443;-66
2022/09/19 12:04:06;;;;;;;4.93;3.60;;;13.30;99.90;;;;;;5106169;28;20464;-66
2022/09/19 12:06:55;;;;;;;4.47;3.47;;;13.30;99.90;;;;;;5121340;28;20472;-65
2022/09/19 12:09:34;;;;;;;5.37;3.43;;;13.30;99.90;;;;;;5113581;28;20903;-66
2022/09/19 12:12:11;;;;;;;5.40;3.23;;;13.20;99.90;;;;;;5123640;28;20515;-65
2022/09/19 12:14:45;;;;;;;4.17;3.60;;;13.20;99.90;;;;;;5113147;28;20465;-66
2022/09/19 12:17:22;;;;;;;4.80;3.03;;;13.10;99.90;;;;;;5120417;28;20460;-66
2022/09/19 12:20:00;;;;;;;4.03;2.73;;;13.10;99.90;;;;;;5104850;28;21010;-66
2022/09/19 12:22:32;;;;;;;3.30;2.97;;;13.20;99.90;;;;;;5107073;28;20534;-66
2022/09/19 12:25:18;;;;;;;4.90;3.60;;;13.20;99.90;;;;;;5120748;28;20496;-65
2022/09/19 12:27:53;;;;;;;3.90;3.23;;;13.20;99.90;;;;;;5105865;28;20454;-66
2022/09/19 12:30:25;;;;;;;3.67;3.33;;;13.20;99.90;;;;;;5102432;28;20531;-65
2022/09/19 12:33:01;;;;;;;5.10;3.10;;;13.10;99.90;;;;;;5106842;28;20455;-66
2022/09/19 12:35:37;;;;;;;3.63;2.83;;;13.20;99.90;;;;;;5115425;28;20514;-66
2022/09/19 12:38:18;;;;;;;4.90;3.50;;;13.20;99.90;;;;;;5113648;28;20461;-66
2022/09/19 12:40:55;;;;;;;4.17;3.37;;;13.20;99.90;;;;;;5103524;28;20459;-66
2022/09/19 12:43:37;;;;;;;4.70;3.70;;;13.10;99.90;;;;;;5105012;28;20535;-66
2022/09/19 12:46:22;;;;;;;6.63;4.67;;;13.00;99.90;;;;;;5116627;28;20510;-65
2022/09/19 12:49:01;;;;;;;3.50;3.20;;;12.90;99.90;;;;;;5103600;28;20489;-65
2022/09/19 12:51:47;;;;;;;4.90;3.43;;;13.00;99.90;;;;;;5108347;28;20531;-65
2022/09/19 12:54:23;;;;;;;5.83;3.17;;;13.00;99.90;;;;;;5101269;28;20519;-66
2022/09/19 12:57:03;;;;;;;4.03;3.33;;;13.00;99.90;;;;;;5110699;28;20454;-64
2022/09/19 12:59:36;;;;;;;4.43;3.43;;;13.00;99.90;;;;;;5102998;28;20519;-65
2022/09/19 13:02:21;;;;;;;3.90;2.87;;;12.90;99.90;;;;;;5111764;28;20909;-65
2022/09/19 13:05:00;;;;;;;4.57;3.60;;;13.00;99.90;;;;;;5102776;28;20502;-65
2022/09/19 13:07:36;;;;;;;4.20;3.60;;;12.90;99.90;;;;;;5110866;28;20598;-65
2022/09/19 13:10:19;;;;;;;7.30;3.07;;;12.90;99.90;;;;;;5107535;28;20498;-64
2022/09/19 13:12:57;;;;;;;5.63;3.23;;;12.90;99.90;;;;;;5104297;28;20462;-65
2022/09/19 13:15:33;;;;;;;3.13;2.83;;;12.80;99.90;;;;;;5106915;28;20450;-64
2022/09/19 13:23:44;;;;;;;4.10;2.90;;;12.70;99.90;;;;;;5090787;28;20542;-65
2022/09/19 13:26:33;;;;;;;4.17;3.13;;;12.60;99.90;;;;;;5124550;28;20463;-65
2022/09/19 13:29:17;;;;;;;6.50;3.70;;;12.60;99.90;;;;;;5088734;28;20524;-66
2022/09/19 13:32:02;;;;;;;3.93;2.90;;;12.60;99.90;;;;;;5103910;28;20454;-66
2022/09/19 13:34:45;;;;;;;5.37;3.90;;;12.50;99.90;;;;;;5104220;28;20447;-65
2022/09/19 13:37:55;;;;;;;4.57;2.90;;;12.60;99.90;;;;;;5112441;28;20499;-64
2022/09/19 13:40:55;;;;;;;7.03;3.47;;;12.60;99.90;;;;;;5117132;28;20535;-65
2022/09/19 13:43:48;;;;;;;5.53;4.03;;;12.60;99.90;;;;;;5103777;28;20516;-65
2022/09/19 13:46:27;;;;;;;3.50;2.83;;;12.50;99.90;;;;;;5102979;28;20500;-65
2022/09/19 13:49:02;;;;;;;3.70;3.40;;;12.50;99.90;;;;;;5103768;28;20486;-65